Time;durP1;ratioP1;P1;durP2;ratioP2;P2;SDS_P1;SDS_P2;PMS_P1;PMS_P2;Temp;Humidity;BMP_temperature;BMP_pressure;BME280_temperature;BME280_humidity;BME280_pressure;Samples;Min_cycle;Max_cycle;Signal;HPM_P1;HPM_P2
2022/05/28 00:01:28;;;;;;;0.00;0.00;;;10.50;99.90;;;;;;5023053;28;20132;-63
2022/05/28 00:03:57;;;;;;;0.00;0.00;;;10.40;99.90;;;;;;5021592;28;20132;-63
2022/05/28 00:06:24;;;;;;;0.00;0.00;;;10.40;99.90;;;;;;5022968;28;20062;-64
2022/05/28 00:08:50;;;;;;;0.00;0.00;;;10.50;99.90;;;;;;5021787;28;20522;-63
2022/05/28 00:11:32;;;;;;;0.00;0.00;;;10.50;99.90;;;;;;5022791;28;20049;-63
2022/05/28 00:13:58;;;;;;;0.00;0.00;;;10.40;99.90;;;;;;5021935;28;20049;-63
2022/05/28 00:16:24;;;;;;;0.00;0.00;;;10.40;99.90;;;;;;5020960;28;20140;-63
2022/05/28 00:18:54;;;;;;;0.00;0.00;;;10.40;99.90;;;;;;5022942;28;20543;-63
2022/05/28 00:21:21;;;;;;;0.00;0.00;;;10.30;99.90;;;;;;5022620;28;20133;-63
2022/05/28 00:23:47;;;;;;;0.00;0.00;;;10.40;99.90;;;;;;5020757;28;20053;-63
2022/05/28 00:26:14;;;;;;;0.00;0.00;;;9.90;99.90;;;;;;5022901;28;20110;-63
2022/05/28 00:28:40;;;;;;;0.00;0.00;;;10.20;99.90;;;;;;5022213;28;20034;-64
2022/05/28 00:31:06;;;;;;;0.00;0.00;;;10.20;99.90;;;;;;5020316;28;20099;-64
2022/05/28 00:33:31;;;;;;;0.00;0.00;;;10.10;99.90;;;;;;5021043;28;20052;-64
2022/05/28 00:35:58;;;;;;;0.00;0.00;;;10.20;99.90;;;;;;5022621;28;20595;-63
2022/05/28 00:38:24;;;;;;;0.00;0.00;;;10.10;99.90;;;;;;5021357;28;20041;-63
2022/05/28 00:40:53;;;;;;;0.00;0.00;;;10.10;99.90;;;;;;5022049;28;20753;-64
2022/05/28 00:43:20;;;;;;;0.00;0.00;;;10.00;99.90;;;;;;5022126;28;20045;-64
2022/05/28 00:45:47;;;;;;;0.00;0.00;;;10.00;99.90;;;;;;5016182;28;20230;-61
2022/05/28 00:48:20;;;;;;;0.00;0.00;;;10.00;99.90;;;;;;5005886;28;20056;-64
2022/05/28 00:50:45;;;;;;;0.00;0.00;;;9.90;99.90;;;;;;5002564;28;20413;-63
2022/05/28 00:53:11;;;;;;;0.00;0.00;;;9.90;99.90;;;;;;5001925;28;20049;-64
2022/05/28 00:55:37;;;;;;;0.00;0.00;;;10.10;99.90;;;;;;5001521;28;20145;-63
2022/05/28 00:58:06;;;;;;;0.00;0.00;;;9.90;99.90;;;;;;5002590;28;20088;-63
2022/05/28 01:00:33;;;;;;;0.00;0.00;;;9.90;99.90;;;;;;5017275;28;20040;-63
2022/05/28 01:03:32;;;;;;;0.00;0.00;;;9.90;99.90;;;;;;5002021;28;20060;-64
2022/05/28 01:06:04;;;;;;;0.00;0.00;;;9.80;99.90;;;;;;5001837;28;20061;-64
2022/05/28 01:08:37;;;;;;;0.00;0.00;;;9.80;99.90;;;;;;5000982;28;20054;-63
2022/05/28 01:11:11;;;;;;;0.00;0.00;;;9.80;99.90;;;;;;5008847;28;20095;-63
2022/05/28 01:13:56;;;;;;;0.00;0.00;;;9.70;99.90;;;;;;5021405;28;20455;-63
2022/05/28 01:16:33;;;;;;;0.00;0.00;;;9.70;99.90;;;;;;5021187;28;20049;-63
2022/05/28 01:19:09;;;;;;;0.00;0.00;;;9.70;99.90;;;;;;5020921;28;20076;-63
2022/05/28 01:21:47;;;;;;;0.00;0.00;;;9.70;99.90;;;;;;5020980;28;20049;-64
2022/05/28 01:24:19;;;;;;;0.00;0.00;;;10.00;99.90;;;;;;5021018;28;20056;-63
2022/05/28 01:27:08;;;;;;;0.00;0.00;;;9.70;99.90;;;;;;5021575;28;20050;-63
2022/05/28 01:29:46;;;;;;;0.00;0.00;;;9.70;99.90;;;;;;5021386;28;20432;-64
2022/05/28 01:32:12;;;;;;;0.00;0.00;;;9.70;99.90;;;;;;5021736;28;20105;-64
2022/05/28 01:34:40;;;;;;;0.00;0.00;;;9.70;99.90;;;;;;5021075;28;20465;-64
2022/05/28 01:37:06;;;;;;;0.00;0.00;;;9.60;99.90;;;;;;5019770;28;20049;-63
2022/05/28 01:39:33;;;;;;;0.00;0.00;;;9.70;99.90;;;;;;5021302;28;20045;-64
2022/05/28 01:42:01;;;;;;;0.00;0.00;;;9.60;99.90;;;;;;5021506;28;20100;-63
2022/05/28 01:44:28;;;;;;;0.00;0.00;;;9.60;99.90;;;;;;5019197;28;20400;-63
2022/05/28 01:46:55;;;;;;;0.00;0.00;;;9.60;99.90;;;;;;5011594;28;20408;-63
2022/05/28 01:49:21;;;;;;;0.00;0.00;;;9.80;99.90;;;;;;5001363;28;20045;-63
2022/05/28 01:51:52;;;;;;;0.00;0.00;;;9.70;99.90;;;;;;5000985;28;20065;-63
2022/05/28 01:54:20;;;;;;;0.00;0.00;;;9.60;99.90;;;;;;5000627;28;20549;-63
2022/05/28 01:56:48;;;;;;;0.03;0.03;;;9.60;99.90;;;;;;5001361;28;20100;-64
2022/05/28 01:59:19;;;;;;;0.00;0.00;;;9.60;99.90;;;;;;5000292;28;20096;-63
2022/05/28 02:01:45;;;;;;;0.00;0.00;;;9.50;99.90;;;;;;4999894;28;20628;-63
2022/05/28 02:04:11;;;;;;;0.00;0.00;;;9.60;99.90;;;;;;5001443;28;20041;-64
2022/05/28 02:06:38;;;;;;;0.00;0.00;;;10.10;99.90;;;;;;4999604;28;20085;-63
2022/05/28 02:09:09;;;;;;;0.00;0.00;;;9.70;99.90;;;;;;5000251;28;20054;-64
2022/05/28 02:12:13;;;;;;;0.00;0.00;;;9.80;99.90;;;;;;5000918;28;20268;-64
2022/05/28 02:14:58;;;;;;;0.00;0.00;;;9.80;99.90;;;;;;5000953;28;20049;-63
2022/05/28 02:17:26;;;;;;;;;;;9.80;99.90;;;;;;5001149;28;20129;-64
2022/05/28 02:20:04;;;;;;;0.00;0.00;;;9.80;99.90;;;;;;5015716;28;19925;-64
2022/05/28 02:22:57;;;;;;;0.00;0.00;;;9.80;99.90;;;;;;4999055;28;20180;-64
2022/05/28 02:25:38;;;;;;;0.00;0.00;;;9.80;99.90;;;;;;5001238;28;20160;-63
2022/05/28 02:28:06;;;;;;;0.00;0.00;;;9.70;99.90;;;;;;5001108;28;20092;-63
2022/05/28 02:30:32;;;;;;;0.00;0.00;;;9.70;99.90;;;;;;4999191;28;20045;-63
2022/05/28 02:33:01;;;;;;;0.00;0.00;;;9.70;99.90;;;;;;5002697;28;20453;-63
2022/05/28 02:35:27;;;;;;;0.00;0.00;;;9.70;99.90;;;;;;5004433;28;20045;-64
2022/05/28 02:37:53;;;;;;;0.00;0.00;;;9.70;99.90;;;;;;5003996;28;20065;-63
2022/05/28 02:40:19;;;;;;;0.00;0.00;;;9.70;99.90;;;;;;5004883;28;20045;-63
2022/05/28 02:42:44;;;;;;;0.00;0.00;;;9.70;99.90;;;;;;5003975;28;20112;-63
2022/05/28 02:45:10;;;;;;;0.00;0.00;;;9.70;99.90;;;;;;5007096;28;20247;-64
2022/05/28 02:47:36;;;;;;;0.00;0.00;;;9.60;99.90;;;;;;5012628;28;20057;-63
2022/05/28 02:50:02;;;;;;;0.00;0.00;;;9.80;99.90;;;;;;5003565;28;20046;-63
2022/05/28 02:52:27;;;;;;;0.13;0.10;;;9.70;99.90;;;;;;5003404;28;20046;-63
2022/05/28 02:54:53;;;;;;;0.00;0.00;;;9.70;99.90;;;;;;5004134;28;20045;-64
2022/05/28 02:57:19;;;;;;;0.00;0.00;;;9.70;99.90;;;;;;5004413;28;20551;-63
2022/05/28 02:59:45;;;;;;;0.00;0.00;;;9.60;99.90;;;;;;5005015;28;20397;-63
2022/05/28 03:02:10;;;;;;;0.00;0.00;;;9.70;99.90;;;;;;5004677;28;20204;-64
2022/05/28 03:04:36;;;;;;;0.00;0.00;;;9.60;99.90;;;;;;5003442;28;20034;-63
2022/05/28 03:07:02;;;;;;;0.00;0.00;;;9.70;99.90;;;;;;5003748;28;20054;-63
2022/05/28 03:09:27;;;;;;;0.00;0.00;;;9.70;99.90;;;;;;5004084;28;20050;-63
2022/05/28 03:11:53;;;;;;;0.00;0.00;;;9.50;99.90;;;;;;5003623;28;20123;-64
2022/05/28 03:14:19;;;;;;;0.00;0.00;;;9.50;99.90;;;;;;5004467;28;20041;-64
2022/05/28 03:16:45;;;;;;;0.00;0.00;;;9.50;99.90;;;;;;5004477;28;20046;-63
2022/05/28 03:19:11;;;;;;;0.00;0.00;;;9.50;99.90;;;;;;5004364;28;20048;-63
2022/05/28 03:21:36;;;;;;;0.00;0.00;;;9.50;99.90;;;;;;5002176;28;20049;-63
2022/05/28 03:24:02;;;;;;;0.10;0.10;;;9.50;99.90;;;;;;5002334;28;20046;-64
2022/05/28 03:26:30;;;;;;;0.00;0.00;;;9.50;99.90;;;;;;5003959;28;20049;-64
2022/05/28 03:28:57;;;;;;;0.00;0.00;;;9.40;99.90;;;;;;5003493;28;20069;-63
2022/05/28 03:31:25;;;;;;;0.00;0.00;;;9.40;99.90;;;;;;5003651;28;20060;-63
2022/05/28 03:33:50;;;;;;;0.00;0.00;;;9.40;99.90;;;;;;5003490;28;20442;-64
2022/05/28 03:36:18;;;;;;;0.00;0.00;;;9.40;99.90;;;;;;5003555;28;20127;-63
2022/05/28 03:38:43;;;;;;;0.00;0.00;;;9.40;99.90;;;;;;5002876;28;20100;-63
2022/05/28 03:41:10;;;;;;;0.00;0.00;;;9.40;99.90;;;;;;5003962;28;20622;-63
2022/05/28 03:43:35;;;;;;;0.00;0.00;;;9.50;99.90;;;;;;5003533;28;20887;-64
2022/05/28 03:46:02;;;;;;;0.00;0.00;;;9.60;99.90;;;;;;5011518;28;20057;-64
2022/05/28 03:48:29;;;;;;;0.00;0.00;;;9.40;99.90;;;;;;5005110;28;20053;-63
2022/05/28 03:50:55;;;;;;;0.00;0.00;;;9.40;99.90;;;;;;4986372;28;20449;-63
2022/05/28 03:53:22;;;;;;;0.00;0.00;;;9.40;99.90;;;;;;5002438;28;20041;-64
2022/05/28 03:55:47;;;;;;;0.00;0.00;;;9.50;99.90;;;;;;5002916;28;20082;-63
2022/05/28 03:58:13;;;;;;;0.00;0.00;;;9.50;99.90;;;;;;5003759;28;20077;-64
2022/05/28 04:00:40;;;;;;;0.00;0.00;;;9.50;99.90;;;;;;5001841;28;20532;-64
2022/05/28 04:03:06;;;;;;;0.00;0.00;;;9.50;99.90;;;;;;5002391;28;20042;-63
2022/05/28 04:05:32;;;;;;;0.00;0.00;;;9.60;99.90;;;;;;5002750;28;20049;-64
2022/05/28 04:07:57;;;;;;;0.00;0.00;;;10.20;99.90;;;;;;5002634;28;20038;-64
2022/05/28 04:10:24;;;;;;;0.00;0.00;;;9.60;99.90;;;;;;5003020;28;20053;-64
2022/05/28 04:12:50;;;;;;;0.00;0.00;;;9.60;99.90;;;;;;5001999;28;20046;-63
2022/05/28 04:15:15;;;;;;;0.00;0.00;;;9.70;99.90;;;;;;5002832;28;20046;-62
2022/05/28 04:17:41;;;;;;;0.00;0.00;;;9.80;99.90;;;;;;5002968;28;20073;-62
2022/05/28 04:20:10;;;;;;;0.00;0.00;;;9.80;99.90;;;;;;5002823;28;20038;-64
2022/05/28 04:22:36;;;;;;;0.00;0.00;;;9.90;99.90;;;;;;5001095;28;20156;-63
2022/05/28 04:25:02;;;;;;;2.08;0.22;;;9.90;99.90;;;;;;5003152;28;20432;-64
2022/05/28 04:27:27;;;;;;;0.00;0.00;;;10.00;99.90;;;;;;5002609;28;20041;-64
2022/05/28 04:29:53;;;;;;;0.00;0.00;;;10.10;99.90;;;;;;5002028;28;20053;-64
2022/05/28 04:32:18;;;;;;;0.00;0.00;;;10.00;99.90;;;;;;5002655;28;20077;-64
2022/05/28 04:34:44;;;;;;;0.00;0.00;;;10.10;99.90;;;;;;5003024;28;20040;-63
2022/05/28 04:37:10;;;;;;;0.00;0.00;;;10.10;99.90;;;;;;5001541;28;20180;-64
2022/05/28 04:39:35;;;;;;;0.00;0.00;;;10.20;99.90;;;;;;5002270;28;20273;-63
2022/05/28 04:42:01;;;;;;;0.00;0.00;;;10.20;99.90;;;;;;5002426;28;20046;-64
2022/05/28 04:44:27;;;;;;;0.00;0.00;;;10.20;99.90;;;;;;5001935;28;20485;-64
2022/05/28 04:46:52;;;;;;;0.00;0.00;;;10.20;99.90;;;;;;5012608;28;20096;-64
2022/05/28 04:49:18;;;;;;;0.00;0.00;;;10.10;99.90;;;;;;5002192;28;20050;-63
2022/05/28 04:51:43;;;;;;;0.00;0.00;;;10.10;99.90;;;;;;5001902;28;20653;-63
2022/05/28 04:54:09;;;;;;;0.00;0.00;;;10.00;99.90;;;;;;5002217;28;20124;-64
2022/05/28 04:56:35;;;;;;;0.10;0.10;;;10.10;99.90;;;;;;5001188;28;20478;-64
2022/05/28 04:59:00;;;;;;;0.00;0.00;;;10.10;99.90;;;;;;5002301;28;20546;-64
2022/05/28 05:01:26;;;;;;;0.00;0.00;;;10.30;99.90;;;;;;5001805;28;20402;-64
2022/05/28 05:03:52;;;;;;;0.00;0.00;;;10.40;99.90;;;;;;5001715;28;20068;-63
2022/05/28 05:06:18;;;;;;;0.00;0.00;;;10.80;99.90;;;;;;5001339;28;20504;-64
2022/05/28 05:08:44;;;;;;;0.00;0.00;;;11.20;99.90;;;;;;5002697;28;20465;-63
2022/05/28 05:11:11;;;;;;;0.00;0.00;;;11.10;99.90;;;;;;5002514;28;20056;-64
2022/05/28 05:13:37;;;;;;;0.00;0.00;;;11.00;99.90;;;;;;5001083;28;20117;-64
2022/05/28 05:16:13;;;;;;;0.00;0.00;;;11.00;99.90;;;;;;5016399;28;20077;-63
2022/05/28 05:18:39;;;;;;;0.00;0.00;;;10.90;99.90;;;;;;5002111;28;20038;-64
2022/05/28 05:21:05;;;;;;;0.00;0.00;;;11.00;99.90;;;;;;5001634;28;20042;-64
2022/05/28 05:23:31;;;;;;;0.00;0.00;;;10.90;99.90;;;;;;5000842;28;20046;-64
2022/05/28 05:25:56;;;;;;;0.00;0.00;;;11.10;99.90;;;;;;5000408;28;20073;-64
2022/05/28 05:28:22;;;;;;;0.00;0.00;;;11.10;99.90;;;;;;5001090;28;20159;-63
2022/05/28 05:30:48;;;;;;;0.00;0.00;;;11.30;99.90;;;;;;5001842;28;20030;-64
2022/05/28 05:33:13;;;;;;;0.00;0.00;;;11.30;99.90;;;;;;5001825;28;20939;-64
2022/05/28 05:35:39;;;;;;;0.00;0.00;;;11.60;99.90;;;;;;5001258;28;20046;-64
2022/05/28 05:38:07;;;;;;;1.00;0.40;;;11.90;99.90;;;;;;5000587;28;20037;-64
2022/05/28 05:40:36;;;;;;;0.00;0.00;;;12.20;99.90;;;;;;4999998;28;20113;-64
2022/05/28 05:43:01;;;;;;;0.00;0.00;;;12.70;99.90;;;;;;5001517;28;20065;-64
2022/05/28 05:45:27;;;;;;;0.00;0.00;;;13.00;99.90;;;;;;5005266;28;20501;-64
2022/05/28 05:47:53;;;;;;;0.00;0.00;;;13.30;99.90;;;;;;5007985;28;20737;-63
2022/05/28 05:50:18;;;;;;;0.00;0.00;;;13.50;99.90;;;;;;5001381;28;20053;-64
2022/05/28 05:52:44;;;;;;;0.00;0.00;;;13.50;99.90;;;;;;5001128;28;20061;-64
2022/05/28 05:55:10;;;;;;;0.00;0.00;;;14.00;99.90;;;;;;5000835;28;20041;-64
2022/05/28 05:57:35;;;;;;;0.00;0.00;;;13.60;99.90;;;;;;5001254;28;20069;-64
2022/05/28 06:00:01;;;;;;;0.00;0.00;;;13.60;99.90;;;;;;5001292;28;20053;-64
2022/05/28 06:02:26;;;;;;;0.08;0.08;;;13.10;99.90;;;;;;5000409;28;20057;-63
2022/05/28 06:04:53;;;;;;;0.00;0.00;;;12.80;99.90;;;;;;5001497;28;20125;-63
2022/05/28 06:07:19;;;;;;;0.00;0.00;;;12.50;99.90;;;;;;4999968;28;20070;-64
2022/05/28 06:09:45;;;;;;;0.00;0.00;;;12.20;99.90;;;;;;5001267;28;20058;-63
2022/05/28 06:12:11;;;;;;;0.90;0.20;;;12.20;99.90;;;;;;5000571;28;20077;-64
2022/05/28 06:14:36;;;;;;;0.10;0.10;;;11.70;99.90;;;;;;5000895;28;20053;-63
2022/05/28 06:17:02;;;;;;;0.08;0.08;;;12.00;99.90;;;;;;5001210;28;20048;-64
2022/05/28 06:19:28;;;;;;;0.00;0.00;;;12.20;99.90;;;;;;5000365;28;20034;-64
2022/05/28 06:21:57;;;;;;;0.13;0.10;;;12.30;99.90;;;;;;5000237;28;20100;-64
2022/05/28 06:24:23;;;;;;;0.00;0.00;;;12.40;99.90;;;;;;5000819;28;20034;-64
2022/05/28 06:26:49;;;;;;;0.10;0.10;;;12.10;99.90;;;;;;5000547;28;20096;-64
2022/05/28 06:29:14;;;;;;;0.00;0.00;;;12.10;99.90;;;;;;5001355;28;20524;-63
2022/05/28 06:31:40;;;;;;;0.00;0.00;;;12.10;99.90;;;;;;5000823;28;20045;-64
2022/05/28 06:34:05;;;;;;;0.00;0.00;;;12.30;99.90;;;;;;4999484;28;20146;-64
2022/05/28 06:36:31;;;;;;;0.00;0.00;;;12.90;99.90;;;;;;4999334;28;20041;-64
2022/05/28 06:38:57;;;;;;;0.10;0.10;;;13.60;99.90;;;;;;5001098;28;20034;-64
2022/05/28 06:41:22;;;;;;;0.00;0.00;;;13.80;99.90;;;;;;5000906;28;20045;-64
2022/05/28 06:43:48;;;;;;;0.00;0.00;;;14.20;99.90;;;;;;5001086;28;20045;-64
2022/05/28 06:46:14;;;;;;;0.00;0.00;;;14.30;99.90;;;;;;5011171;28;20408;-64
2022/05/28 06:48:39;;;;;;;0.00;0.00;;;14.50;99.90;;;;;;5001239;28;20053;-64
2022/05/28 06:51:06;;;;;;;0.00;0.00;;;15.00;99.90;;;;;;5000531;28;20809;-64
2022/05/28 06:53:34;;;;;;;0.10;0.10;;;14.90;99.90;;;;;;5000129;28;20115;-64
2022/05/28 06:56:00;;;;;;;0.00;0.00;;;15.20;99.90;;;;;;5000611;28;20092;-63
2022/05/28 06:58:25;;;;;;;0.00;0.00;;;15.10;99.90;;;;;;5000433;28;20038;-63
2022/05/28 07:00:51;;;;;;;0.10;0.10;;;14.80;99.90;;;;;;5000713;28;20104;-64
2022/05/28 07:03:20;;;;;;;0.00;0.00;;;14.50;99.90;;;;;;4999955;28;20084;-64
2022/05/28 07:05:46;;;;;;;0.00;0.00;;;14.10;99.90;;;;;;5000940;28;20080;-64
2022/05/28 07:08:12;;;;;;;0.00;0.00;;;14.10;99.90;;;;;;5000564;28;20104;-64
2022/05/28 07:10:44;;;;;;;0.00;0.00;;;13.90;99.90;;;;;;4998402;28;20246;-64
2022/05/28 07:13:10;;;;;;;0.08;0.08;;;14.10;99.90;;;;;;5001058;28;20240;-64
2022/05/28 07:15:36;;;;;;;0.00;0.00;;;14.60;99.90;;;;;;5000289;28;20053;-63
2022/05/28 07:18:03;;;;;;;0.00;0.00;;;15.20;99.90;;;;;;4999634;28;20041;-63
2022/05/28 07:20:29;;;;;;;0.00;0.00;;;15.50;99.90;;;;;;4985170;28;20076;-64
2022/05/28 07:22:54;;;;;;;0.00;0.00;;;15.80;99.90;;;;;;5003191;28;20050;-64
2022/05/28 07:25:20;;;;;;;0.00;0.00;;;15.60;99.90;;;;;;5004063;28;20038;-64
2022/05/28 07:27:45;;;;;;;0.00;0.00;;;15.70;99.90;;;;;;5003170;28;20715;-63
2022/05/28 07:30:11;;;;;;;0.28;0.13;;;15.80;99.90;;;;;;5004235;28;20041;-65
2022/05/28 07:32:38;;;;;;;0.00;0.00;;;15.70;99.90;;;;;;5003643;28;20112;-64
2022/05/28 07:35:04;;;;;;;0.00;0.00;;;15.80;99.90;;;;;;5003740;28;20073;-65
2022/05/28 07:37:31;;;;;;;0.00;0.00;;;15.90;99.90;;;;;;5002791;28;20042;-64
2022/05/28 07:39:58;;;;;;;0.00;0.00;;;16.00;99.90;;;;;;5017121;28;20041;-64
2022/05/28 07:42:24;;;;;;;0.00;0.00;;;16.10;99.90;;;;;;5023350;28;20150;-65
2022/05/28 07:44:49;;;;;;;0.00;0.00;;;16.20;99.90;;;;;;5017441;28;20113;-65
2022/05/28 07:47:15;;;;;;;0.00;0.00;;;16.00;99.90;;;;;;5014889;28;20049;-65
2022/05/28 07:49:41;;;;;;;0.00;0.00;;;15.30;99.90;;;;;;5023897;28;20050;-62
2022/05/28 07:52:07;;;;;;;0.00;0.00;;;15.00;99.90;;;;;;5022227;28;20087;-65
2022/05/28 07:54:33;;;;;;;0.00;0.00;;;14.60;99.90;;;;;;5022847;28;20037;-65
2022/05/28 07:56:59;;;;;;;0.00;0.00;;;14.70;99.90;;;;;;5022951;28;20076;-64
2022/05/28 07:59:24;;;;;;;0.00;0.00;;;15.00;99.90;;;;;;5023110;28;20046;-65
2022/05/28 08:01:50;;;;;;;0.00;0.00;;;15.30;99.90;;;;;;5022628;28;20045;-64
2022/05/28 08:04:16;;;;;;;0.00;0.00;;;15.50;99.90;;;;;;5021377;28;20147;-64
2022/05/28 08:06:42;;;;;;;0.00;0.00;;;15.50;99.90;;;;;;5022164;28;20053;-63
2022/05/28 08:09:10;;;;;;;0.00;0.00;;;15.30;99.90;;;;;;5022962;28;20397;-64
2022/05/28 08:11:36;;;;;;;0.00;0.00;;;14.90;99.90;;;;;;5022074;28;20042;-64
2022/05/28 08:14:02;;;;;;;0.00;0.00;;;14.50;99.90;;;;;;5021879;28;20144;-64
2022/05/28 08:16:28;;;;;;;0.00;0.00;;;14.30;99.90;;;;;;5022549;28;20053;-64
2022/05/28 08:18:53;;;;;;;0.00;0.00;;;14.00;99.90;;;;;;5021891;28;20098;-64
2022/05/28 08:24:04;;;;;;;0.10;0.10;;;13.80;99.90;;;;;;5022605;28;20049;-65
2022/05/28 08:26:31;;;;;;;0.00;0.00;;;13.90;99.90;;;;;;5021788;28;20365;-64
2022/05/28 08:28:57;;;;;;;0.00;0.00;;;14.40;99.90;;;;;;5022585;28;20137;-64
2022/05/28 08:31:24;;;;;;;0.00;0.00;;;14.80;99.90;;;;;;5022477;28;20175;-65
2022/05/28 08:33:50;;;;;;;0.00;0.00;;;15.00;99.90;;;;;;5021920;28;20052;-64
2022/05/28 08:36:17;;;;;;;1.13;0.17;;;15.10;99.90;;;;;;5019618;28;20049;-64
2022/05/28 08:38:43;;;;;;;0.30;0.10;;;15.50;99.90;;;;;;5022589;28;20049;-64
2022/05/28 08:41:48;;;;;;;0.00;0.00;;;15.30;99.90;;;;;;5020783;28;20081;-65
2022/05/28 08:44:20;;;;;;;0.00;0.00;;;15.30;99.90;;;;;;4988216;28;20393;-64
2022/05/28 08:46:53;;;;;;;0.00;0.00;;;15.00;99.90;;;;;;5012953;28;20049;-65
2022/05/28 08:49:24;;;;;;;0.00;0.00;;;15.10;99.90;;;;;;5000841;28;20070;-65
2022/05/28 08:51:52;;;;;;;0.00;0.00;;;15.40;99.90;;;;;;5001124;28;20164;-65
2022/05/28 08:54:28;;;;;;;0.00;0.00;;;15.70;99.90;;;;;;5002032;28;20103;-65
2022/05/28 08:56:58;;;;;;;0.00;0.00;;;15.40;99.90;;;;;;5002017;28;20053;-64
2022/05/28 08:59:39;;;;;;;0.00;0.00;;;15.70;99.90;;;;;;5001599;28;20440;-65
2022/05/28 09:02:17;;;;;;;0.00;0.00;;;15.80;99.90;;;;;;5001802;28;20055;-65
2022/05/28 09:04:45;;;;;;;0.00;0.00;;;15.80;99.90;;;;;;5001752;28;20046;-64
2022/05/28 09:07:14;;;;;;;0.00;0.00;;;15.70;99.90;;;;;;5001647;28;20070;-65
2022/05/28 09:09:44;;;;;;;0.00;0.00;;;15.90;99.90;;;;;;5002128;28;20046;-64
2022/05/28 09:12:30;;;;;;;0.00;0.00;;;15.80;99.90;;;;;;5001641;28;20050;-64
2022/05/28 09:14:56;;;;;;;0.00;0.00;;;15.70;99.90;;;;;;5000515;28;20104;-63
2022/05/28 09:17:40;;;;;;;0.00;0.00;;;15.60;99.90;;;;;;5001504;28;20133;-64
2022/05/28 09:20:16;;;;;;;3.00;0.20;;;15.80;99.90;;;;;;5001837;28;20049;-64
2022/05/28 09:22:42;;;;;;;0.10;0.10;;;16.10;99.90;;;;;;4999852;28;20444;-63
2022/05/28 09:25:09;;;;;;;0.00;0.00;;;16.80;99.90;;;;;;5001432;28;20046;-64
2022/05/28 09:28:02;;;;;;;0.00;0.00;;;16.40;99.90;;;;;;5001437;28;20298;-64
2022/05/28 09:30:57;;;;;;;0.03;0.03;;;16.60;99.90;;;;;;5001129;28;20500;-64
2022/05/28 09:33:54;;;;;;;0.00;0.00;;;16.40;99.90;;;;;;4981660;28;20049;-65
2022/05/28 09:36:54;;;;;;;0.00;0.00;;;16.20;99.90;;;;;;5000300;28;20042;-62
2022/05/28 09:39:25;;;;;;;0.08;0.08;;;16.30;99.90;;;;;;5001348;28;20580;-64
2022/05/28 09:42:12;;;;;;;0.00;0.00;;;16.20;99.90;;;;;;5000779;28;20057;-64
2022/05/28 09:44:50;;;;;;;0.00;0.00;;;16.40;99.90;;;;;;5018157;28;20052;-64
2022/05/28 09:47:19;;;;;;;0.00;0.00;;;16.60;99.90;;;;;;5009632;28;20537;-64
2022/05/28 09:49:53;;;;;;;0.00;0.00;;;16.40;99.90;;;;;;5001643;28;20053;-64
2022/05/28 09:52:31;;;;;;;0.00;0.00;;;16.70;99.90;;;;;;5000503;28;20084;-65
2022/05/28 09:55:17;;;;;;;0.00;0.00;;;16.50;99.90;;;;;;5000494;28;20046;-65
2022/05/28 09:57:58;;;;;;;0.00;0.00;;;15.90;99.90;;;;;;5001659;28;20440;-65
2022/05/28 10:00:24;;;;;;;0.00;0.00;;;15.40;99.90;;;;;;5001194;28;20112;-64
2022/05/28 10:05:50;;;;;;;0.00;0.00;;;16.10;99.90;;;;;;4999515;28;20065;-65
2022/05/28 10:08:16;;;;;;;0.00;0.00;;;16.40;99.90;;;;;;5001055;28;20049;-64
2022/05/28 10:10:51;;;;;;;0.00;0.00;;;16.10;99.90;;;;;;4999462;28;20053;-64
2022/05/28 10:13:19;;;;;;;0.00;0.00;;;16.30;99.90;;;;;;5018450;28;20061;-64
2022/05/28 10:15:58;;;;;;;0.00;0.00;;;16.00;99.90;;;;;;5020997;28;20045;-65
2022/05/28 10:18:28;;;;;;;0.00;0.00;;;16.50;99.90;;;;;;5018141;28;20411;-64
2022/05/28 10:21:11;;;;;;;0.00;0.00;;;16.20;99.90;;;;;;5018277;28;20049;-64
2022/05/28 10:23:40;;;;;;;0.00;0.00;;;15.80;99.90;;;;;;5019378;28;20049;-65
2022/05/28 10:26:15;;;;;;;0.00;0.00;;;15.90;99.90;;;;;;5018650;28;20522;-64
2022/05/28 10:28:50;;;;;;;0.00;0.00;;;16.00;99.90;;;;;;5020291;28;20508;-64
2022/05/28 10:31:22;;;;;;;;;;;16.60;99.90;;;;;;5020223;28;20046;-63
2022/05/28 10:33:48;;;;;;;0.00;0.00;;;16.80;99.90;;;;;;5019032;28;19935;-65
2022/05/28 10:36:17;;;;;;;0.00;0.00;;;16.90;99.90;;;;;;5019657;28;20060;-64
2022/05/28 10:38:45;;;;;;;0.00;0.00;;;17.00;99.90;;;;;;5018530;28;20050;-65
2022/05/28 10:41:22;;;;;;;0.03;0.03;;;17.20;99.90;;;;;;5020541;28;20052;-63
2022/05/28 10:43:49;;;;;;;0.00;0.00;;;17.00;99.90;;;;;;5019134;28;20056;-64
2022/05/28 10:46:35;;;;;;;0.00;0.00;;;17.10;99.90;;;;;;5014077;28;20065;-63
2022/05/28 10:49:29;;;;;;;0.00;0.00;;;17.00;99.90;;;;;;5000590;28;20115;-63
2022/05/28 10:52:19;;;;;;;0.00;0.00;;;17.20;99.90;;;;;;4999909;28;20054;-64
2022/05/28 10:55:05;;;;;;;0.00;0.00;;;17.50;99.90;;;;;;5001785;28;20569;-64
2022/05/28 10:57:47;;;;;;;0.00;0.00;;;17.40;99.90;;;;;;5003958;28;20137;-64
2022/05/28 11:00:48;;;;;;;0.00;0.00;;;17.00;99.90;;;;;;5003670;28;20046;-63
2022/05/28 11:03:22;;;;;;;0.00;0.00;;;16.60;99.90;;;;;;5004034;28;20111;-64
2022/05/28 11:06:10;;;;;;;0.00;0.00;;;16.90;99.90;;;;;;5003356;28;20146;-64
2022/05/28 11:08:42;;;;;;;0.00;0.00;;;16.80;99.90;;;;;;5003823;28;20057;-64
2022/05/28 11:11:33;;;;;;;0.00;0.00;;;16.50;99.90;;;;;;5004394;28;20057;-64
2022/05/28 11:14:11;;;;;;;0.10;0.10;;;16.50;99.90;;;;;;5003825;28;20095;-64
2022/05/28 11:16:52;;;;;;;0.00;0.00;;;16.90;99.90;;;;;;5003313;28;20618;-64
2022/05/28 11:19:26;;;;;;;0.00;0.00;;;17.80;99.90;;;;;;5003922;28;20038;-63
2022/05/28 11:22:29;;;;;;;0.00;0.00;;;17.80;99.90;;;;;;5003292;28;20129;-63
2022/05/28 11:25:05;;;;;;;0.00;0.00;;;18.20;99.90;;;;;;5004135;28;20053;-63
2022/05/28 11:27:53;;;;;;;0.00;0.00;;;18.10;99.90;;;;;;4985935;28;20125;-64
2022/05/28 11:30:39;;;;;;;0.00;0.00;;;18.00;99.90;;;;;;5003378;28;20042;-65
2022/05/28 11:33:41;;;;;;;0.00;0.00;;;16.90;99.90;;;;;;5002556;28;20077;-64
2022/05/28 11:36:17;;;;;;;0.00;0.00;;;16.40;99.90;;;;;;5002129;28;20038;-65
2022/05/28 11:38:54;;;;;;;0.00;0.00;;;16.10;99.90;;;;;;5003818;28;20046;-64
2022/05/28 11:41:43;;;;;;;0.05;0.03;;;16.00;99.90;;;;;;5002811;28;20046;-65
2022/05/28 11:44:15;;;;;;;0.00;0.00;;;16.10;99.90;;;;;;5002753;28;20045;-64
2022/05/28 11:46:46;;;;;;;0.00;0.00;;;16.60;99.90;;;;;;5013650;28;20457;-65
2022/05/28 11:52:21;;;;;;;0.00;0.00;;;16.90;99.90;;;;;;5002242;28;20042;-64
2022/05/28 11:55:12;;;;;;;0.00;0.00;;;16.50;99.90;;;;;;5003333;28;20147;-65
2022/05/28 11:57:47;;;;;;;0.00;0.00;;;16.40;99.90;;;;;;4997481;28;20132;-65
2022/05/28 12:00:15;;;;;;;0.00;0.00;;;16.50;99.90;;;;;;5003169;28;20049;-64
2022/05/28 12:02:51;;;;;;;0.00;0.00;;;16.70;99.90;;;;;;5002826;28;20042;-64
2022/05/28 12:05:42;;;;;;;0.20;0.10;;;16.80;99.90;;;;;;5001196;28;20060;-65
2022/05/28 12:08:28;;;;;;;0.00;0.00;;;17.20;99.90;;;;;;5002117;28;20057;-65
2022/05/28 12:11:19;;;;;;;0.00;0.00;;;17.50;99.90;;;;;;5001484;28;20049;-65
2022/05/28 12:13:51;;;;;;;0.00;0.00;;;17.30;99.90;;;;;;4998217;28;20464;-64
2022/05/28 12:16:17;;;;;;;0.00;0.00;;;17.30;99.90;;;;;;5002753;28;20042;-65
2022/05/28 12:18:59;;;;;;;0.00;0.00;;;17.40;99.90;;;;;;5000765;28;20448;-64
2022/05/28 12:21:33;;;;;;;0.10;0.10;;;17.00;99.90;;;;;;5001825;28;20497;-62
2022/05/28 12:24:24;;;;;;;0.00;0.00;;;16.70;99.90;;;;;;5002179;28;20081;-63
2022/05/28 12:29:44;;;;;;;0.00;0.00;;;16.50;99.90;;;;;;5001766;28;20052;-61
2022/05/28 12:32:19;;;;;;;0.00;0.00;;;16.20;99.90;;;;;;5001190;28;20050;-62
2022/05/28 12:34:56;;;;;;;0.00;0.00;;;16.30;99.90;;;;;;5001877;28;20129;-63
2022/05/28 12:37:30;;;;;;;0.00;0.00;;;16.40;99.90;;;;;;5001513;28;20073;-62
2022/05/28 12:40:08;;;;;;;0.00;0.00;;;16.20;99.90;;;;;;5001954;28;20061;-62
2022/05/28 12:42:34;;;;;;;0.00;0.00;;;16.40;99.90;;;;;;5002178;28;20049;-58
2022/05/28 12:45:31;;;;;;;0.00;0.00;;;16.70;99.90;;;;;;5002295;28;20056;-62
2022/05/28 12:48:11;;;;;;;0.00;0.00;;;16.50;99.90;;;;;;5015978;28;20060;-62
2022/05/28 12:50:59;;;;;;;0.00;0.00;;;16.00;99.90;;;;;;5020145;28;20069;-62
2022/05/28 12:53:27;;;;;;;0.00;0.00;;;15.60;99.90;;;;;;5021704;28;20053;-62
2022/05/28 12:56:07;;;;;;;0.00;0.00;;;15.30;99.90;;;;;;5021944;28;20049;-62
2022/05/28 12:58:36;;;;;;;0.00;0.00;;;15.10;99.90;;;;;;5021274;28;20647;-62
2022/05/28 13:01:25;;;;;;;0.00;0.00;;;15.00;99.90;;;;;;5021532;28;20099;-62
2022/05/28 13:03:53;;;;;;;0.00;0.00;;;14.90;99.90;;;;;;5021698;28;20068;-62
2022/05/28 13:06:53;;;;;;;0.00;0.00;;;15.10;99.90;;;;;;5010327;28;20066;-62
2022/05/28 13:09:27;;;;;;;0.22;0.20;;;15.50;99.90;;;;;;5006249;28;20140;-62
2022/05/28 13:12:10;;;;;;;0.00;0.00;;;15.90;99.90;;;;;;5006979;28;20049;-62
2022/05/28 13:14:36;;;;;;;0.17;0.10;;;16.10;99.90;;;;;;5006173;28;20064;-62
2022/05/28 13:17:25;;;;;;;0.00;0.00;;;16.50;99.90;;;;;;5005231;28;20046;-62
2022/05/28 13:20:08;;;;;;;0.13;0.10;;;16.10;99.90;;;;;;5005971;28;20080;-62
2022/05/28 13:22:54;;;;;;;0.00;0.00;;;15.40;99.90;;;;;;5006176;28;20484;-62